Time;durP1;ratioP1;P1;durP2;ratioP2;P2;SDS_P1;SDS_P2;PMS_P1;PMS_P2;Temp;Humidity;BMP_temperature;BMP_pressure;BME280_temperature;BME280_humidity;BME280_pressure;Samples;Min_cycle;Max_cycle;Signal;HPM_P1;HPM_P2
2021/12/23 00:00:24;;;;;;;10.05;7.13;;;;;;;10.68;78.37;101973.94;5070871;28;20033;-71
2021/12/23 00:02:51;;;;;;;9.02;5.97;;;;;;;10.61;78.51;101981.59;5054009;28;20049;-71
2021/12/23 00:05:19;;;;;;;9.70;6.85;;;;;;;10.53;78.49;101977.78;5069537;28;20114;-71
2021/12/23 00:07:47;;;;;;;12.65;6.82;;;;;;;10.42;78.55;101985.31;5047791;28;20614;-71
2021/12/23 00:10:14;;;;;;;10.35;6.43;;;;;;;10.41;78.60;101982.63;5070532;28;20044;-72
2021/12/23 00:12:45;;;;;;;12.23;6.97;;;;;;;10.41;78.64;101986.16;5068795;28;20123;-71
2021/12/23 00:15:24;;;;;;;11.32;7.30;;;;;;;10.41;78.42;101982.63;5067665;28;20037;-71
2021/12/23 00:18:03;;;;;;;15.30;10.73;;;;;;;10.41;77.95;101982.63;5100301;28;20116;-71
2021/12/23 00:23:36;;;;;;;11.02;8.32;;;;;;;10.34;77.80;101985.03;5102043;28;20063;-72
2021/12/23 00:26:04;;;;;;;15.18;9.32;;;;;;;10.41;77.52;101979.97;5071518;28;20049;-72
2021/12/23 00:28:33;;;;;;;12.88;8.80;;;;;;;10.46;77.51;101975.75;5084834;28;20136;-71
2021/12/23 00:31:02;;;;;;;12.52;7.97;;;;;;;10.50;77.42;101982.97;5073413;28;20041;-71
2021/12/23 00:33:33;;;;;;;12.80;7.00;;;;;;;10.54;77.44;101976.94;5067222;28;20520;-72
2021/12/23 00:36:03;;;;;;;9.98;7.03;;;;;;;10.55;77.31;101982.28;5074613;28;20040;-71
2021/12/23 00:38:34;;;;;;;8.95;6.95;;;;;;;10.58;77.39;101979.72;5086119;28;20035;-71
2021/12/23 00:41:03;;;;;;;10.07;7.03;;;;;;;10.59;77.49;101978.00;5088874;28;20074;-71
2021/12/23 00:43:32;;;;;;;11.20;7.15;;;;;;;10.54;77.71;101977.84;5089151;28;20040;-71
2021/12/23 00:46:00;;;;;;;8.75;5.70;;;;;;;10.58;77.93;101974.44;5089601;28;20050;-71
2021/12/23 00:48:30;;;;;;;9.20;6.65;;;;;;;10.61;77.75;101971.03;5069140;28;20040;-72
2021/12/23 00:50:58;;;;;;;11.05;7.53;;;;;;;10.55;77.92;101971.72;5089185;28;20229;-72
2021/12/23 00:53:26;;;;;;;12.10;8.27;;;;;;;10.58;78.16;101958.59;5093267;28;20040;-71
2021/12/23 00:55:55;;;;;;;11.32;7.78;;;;;;;10.60;78.05;101958.66;5048656;28;20049;-72
2021/12/23 00:58:24;;;;;;;8.88;6.57;;;;;;;10.57;78.00;101953.25;5067699;28;20054;-71
2021/12/23 01:00:52;;;;;;;9.80;6.50;;;;;;;10.54;77.92;101953.19;5068451;28;20040;-72
2021/12/23 01:03:19;;;;;;;11.02;7.25;;;;;;;10.45;77.75;101952.84;5067820;28;20040;-71
2021/12/23 01:05:48;;;;;;;11.32;7.38;;;;;;;10.44;78.07;101944.03;5068234;28;20120;-71
2021/12/23 01:08:19;;;;;;;7.70;5.65;;;;;;;10.47;77.81;101937.97;5068569;28;20040;-71
2021/12/23 01:10:49;;;;;;;10.48;6.30;;;;;;;10.50;77.81;101940.72;5068639;28;20064;-71
2021/12/23 01:13:18;;;;;;;8.73;6.53;;;;;;;10.47;77.80;101938.88;5066421;28;20037;-71
2021/12/23 01:16:04;;;;;;;9.45;6.28;;;;;;;10.53;78.07;101935.53;5068450;28;20389;-71
2021/12/23 01:18:37;;;;;;;10.30;6.13;;;;;;;10.55;77.96;101928.56;5068281;28;20429;-71
2021/12/23 01:21:16;;;;;;;8.27;5.55;;;;;;;10.61;77.96;101926.13;5083054;28;20079;-71
2021/12/23 01:23:49;;;;;;;10.30;6.00;;;;;;;10.66;78.05;101921.91;5067876;28;20102;-71
2021/12/23 01:26:20;;;;;;;8.90;6.28;;;;;;;10.64;78.07;101923.59;5049874;28;20094;-71
2021/12/23 01:28:50;;;;;;;8.82;6.00;;;;;;;10.64;78.16;101918.31;5067457;28;20047;-71
2021/12/23 01:31:18;;;;;;;11.82;6.28;;;;;;;10.66;78.10;101916.63;5068414;28;20040;-71
2021/12/23 01:33:45;;;;;;;8.27;5.78;;;;;;;10.58;77.88;101918.09;5067920;28;20435;-71
2021/12/23 01:36:15;;;;;;;15.68;13.43;;;;;;;10.52;78.32;101918.78;5066417;28;25722;-72
2021/12/23 01:38:42;;;;;;;9.20;6.88;;;;;;;10.55;78.61;101918.00;5067333;28;20556;-71
2021/12/23 01:41:10;;;;;;;8.70;5.93;;;;;;;10.55;78.62;101912.72;5065857;28;20045;-71
2021/12/23 01:43:38;;;;;;;8.25;5.80;;;;;;;10.65;78.72;101912.19;5065839;28;20033;-72
2021/12/23 01:46:05;;;;;;;10.80;6.78;;;;;;;10.67;78.57;101905.22;5083393;28;20492;-71
2021/12/23 01:48:33;;;;;;;9.05;7.10;;;;;;;10.67;78.58;101902.56;5068419;28;20552;-71
2021/12/23 01:51:01;;;;;;;11.20;6.25;;;;;;;10.70;78.57;101900.91;5071691;28;20099;-72
2021/12/23 01:53:30;;;;;;;9.77;5.93;;;;;;;10.70;78.40;101902.66;5070355;28;20546;-73
2021/12/23 01:56:00;;;;;;;8.63;6.18;;;;;;;10.65;78.45;101891.06;5071465;28;20094;-72
2021/12/23 01:58:27;;;;;;;7.57;5.72;;;;;;;10.61;78.47;101890.06;5071236;28;20037;-72
2021/12/23 02:00:55;;;;;;;9.18;5.82;;;;;;;10.65;78.48;101891.94;5071580;28;20056;-72
2021/12/23 02:03:23;;;;;;;8.02;5.50;;;;;;;10.69;78.30;101883.31;5087653;28;20036;-71
2021/12/23 02:05:50;;;;;;;9.23;4.75;;;;;;;10.72;78.24;101879.84;5069628;28;20108;-71
2021/12/23 02:08:18;;;;;;;10.05;5.82;;;;;;;10.68;78.20;101872.69;5070006;28;20086;-71
2021/12/23 02:10:47;;;;;;;8.10;5.13;;;;;;;10.62;78.25;101865.47;5068121;28;20049;-71
2021/12/23 02:13:15;;;;;;;13.93;8.32;;;;;;;10.51;78.14;101861.56;5069679;28;20502;-72
2021/12/23 02:15:42;;;;;;;11.32;6.43;;;;;;;10.53;78.41;101853.69;5069393;28;20036;-71
2021/12/23 02:18:10;;;;;;;13.27;9.80;;;;;;;10.46;78.32;101855.22;5071090;28;20036;-71
2021/12/23 02:20:39;;;;;;;8.70;6.20;;;;;;;10.42;78.24;101863.91;5070663;28;20126;-71
2021/12/23 02:23:10;;;;;;;7.88;6.00;;;;;;;10.44;78.33;101866.56;5069764;28;20041;-71
2021/12/23 02:25:38;;;;;;;8.52;6.10;;;;;;;10.43;78.11;101860.41;5069385;28;20033;-71
2021/12/23 02:28:08;;;;;;;8.68;6.43;;;;;;;10.37;78.22;101869.00;5069256;28;20492;-71
2021/12/23 02:30:38;;;;;;;8.88;6.25;;;;;;;10.42;78.48;101873.56;5070167;28;20067;-72
2021/12/23 02:33:06;;;;;;;8.02;5.97;;;;;;;10.52;78.58;101871.28;5082276;28;20045;-71
2021/12/23 02:35:34;;;;;;;7.93;6.55;;;;;;;10.54;78.39;101868.69;5082082;28;20516;-71
2021/12/23 02:38:04;;;;;;;7.05;5.47;;;;;;;10.54;78.27;101863.41;5070723;28;20044;-71
2021/12/23 02:40:34;;;;;;;8.38;5.47;;;;;;;10.62;78.62;101867.22;5070311;28;20041;-71
2021/12/23 02:43:10;;;;;;;8.02;5.68;;;;;;;10.67;78.22;101865.59;5069509;28;20048;-71
2021/12/23 02:45:39;;;;;;;6.82;5.32;;;;;;;10.68;78.32;101868.31;5069031;28;20032;-71
2021/12/23 02:48:13;;;;;;;7.15;5.13;;;;;;;10.73;78.35;101871.09;5068303;28;20044;-72
2021/12/23 02:50:41;;;;;;;8.18;5.78;;;;;;;10.76;78.36;101868.56;5085839;28;20040;-71
2021/12/23 02:53:11;;;;;;;7.90;5.25;;;;;;;10.79;78.37;101877.47;5070435;28;20071;-71
2021/12/23 02:55:39;;;;;;;6.60;5.25;;;;;;;10.80;78.26;101870.44;5085818;28;20119;-71
2021/12/23 02:58:07;;;;;;;6.97;4.63;;;;;;;10.79;78.23;101869.53;5070539;28;20044;-71
2021/12/23 03:00:35;;;;;;;7.05;5.45;;;;;;;10.74;78.37;101871.16;5068524;28;20118;-71
2021/12/23 03:03:03;;;;;;;7.68;5.57;;;;;;;10.68;78.40;101883.25;5068684;28;20044;-71
2021/12/23 03:05:31;;;;;;;8.07;5.60;;;;;;;10.71;78.58;101878.94;5069933;28;20443;-71
2021/12/23 03:07:59;;;;;;;9.85;4.78;;;;;;;10.76;78.63;101876.47;5070244;28;20045;-71
2021/12/23 03:10:29;;;;;;;7.55;5.15;;;;;;;10.79;78.56;101876.56;5084244;28;20083;-71
2021/12/23 03:12:57;;;;;;;6.25;4.40;;;;;;;10.74;78.57;101880.81;5084451;28;20082;-71
2021/12/23 03:15:25;;;;;;;7.20;4.63;;;;;;;10.75;78.76;101883.50;5068688;28;20123;-71
2021/12/23 03:17:52;;;;;;;6.45;4.55;;;;;;;10.78;78.66;101880.94;5084516;28;20045;-71
2021/12/23 03:20:20;;;;;;;6.88;4.63;;;;;;;10.74;78.56;101878.16;5068449;28;20116;-71
2021/12/23 03:22:48;;;;;;;6.20;3.85;;;;;;;10.67;78.77;101873.53;5068315;28;20041;-71
2021/12/23 03:25:16;;;;;;;7.60;4.47;;;;;;;10.64;78.78;101878.69;5069612;28;20072;-72
2021/12/23 03:27:45;;;;;;;8.32;4.35;;;;;;;10.62;78.87;101881.31;5069136;28;20444;-72
2021/12/23 03:30:13;;;;;;;6.47;4.75;;;;;;;10.62;78.77;101877.75;5069210;28;20094;-71
2021/12/23 03:32:40;;;;;;;6.03;4.43;;;;;;;10.66;78.73;101877.91;5069587;28;20457;-71
2021/12/23 03:35:09;;;;;;;8.55;4.50;;;;;;;10.70;78.65;101881.53;5069389;28;20508;-71
2021/12/23 03:37:36;;;;;;;6.90;4.72;;;;;;;10.70;78.57;101876.25;5067641;28;20095;-70
2021/12/23 03:40:05;;;;;;;7.35;4.63;;;;;;;10.73;78.26;101884.28;5068273;28;20040;-71
2021/12/23 03:42:33;;;;;;;17.90;15.15;;;;;;;10.78;78.39;101886.22;5069029;28;20128;-71
2021/12/23 03:45:03;;;;;;;19.98;17.88;;;;;;;10.76;78.38;101887.03;5068265;28;20044;-71
2021/12/23 03:47:30;;;;;;;13.45;8.20;;;;;;;10.71;78.62;101883.34;5068451;28;20131;-71
2021/12/23 03:49:58;;;;;;;13.02;10.40;;;;;;;10.82;78.69;101891.63;5068429;28;20053;-71
2021/12/23 03:52:25;;;;;;;11.18;8.48;;;;;;;10.87;78.71;101901.50;5066884;28;20036;-71
2021/12/23 03:54:53;;;;;;;7.45;6.00;;;;;;;10.86;78.64;101902.34;5068024;28;20048;-71
2021/12/23 03:57:21;;;;;;;10.35;5.53;;;;;;;10.90;78.68;101906.84;5067487;28;20510;-71
2021/12/23 03:59:49;;;;;;;11.23;6.55;;;;;;;10.92;78.53;101915.75;5094705;28;20059;-71
2021/12/23 04:02:19;;;;;;;9.55;6.85;;;;;;;10.94;78.26;101907.88;5089190;28;20043;-70
2021/12/23 04:04:46;;;;;;;7.60;5.97;;;;;;;10.94;78.25;101914.06;5067139;28;20494;-70
2021/12/23 04:07:14;;;;;;;11.75;7.30;;;;;;;10.97;78.38;101914.13;5067456;28;20053;-70
2021/12/23 04:09:41;;;;;;;9.98;7.45;;;;;;;11.04;78.17;101908.19;5069022;28;20485;-70
2021/12/23 04:12:10;;;;;;;8.02;5.47;;;;;;;11.11;77.93;101911.94;5066427;28;20101;-70
2021/12/23 04:14:38;;;;;;;8.10;5.75;;;;;;;11.16;77.21;101916.50;5068151;28;20044;-70
2021/12/23 04:17:06;;;;;;;11.35;6.22;;;;;;;11.24;76.80;101915.88;5084438;28;20045;-71
2021/12/23 04:19:36;;;;;;;8.57;6.55;;;;;;;11.29;76.59;101922.22;5068386;28;20036;-71
2021/12/23 04:22:03;;;;;;;10.40;6.43;;;;;;;11.31;76.30;101923.13;5069450;28;20456;-71
2021/12/23 04:24:31;;;;;;;9.73;6.25;;;;;;;11.35;76.09;101918.03;5067224;28;20110;-71
2021/12/23 04:26:59;;;;;;;7.15;5.55;;;;;;;11.34;75.73;101926.78;5068817;28;20071;-70
2021/12/23 04:29:26;;;;;;;9.90;4.95;;;;;;;11.37;75.42;101925.97;5068120;28;20041;-70
2021/12/23 04:31:55;;;;;;;9.32;4.95;;;;;;;11.40;75.43;101924.34;5067333;28;20747;-71
2021/12/23 04:34:23;;;;;;;8.00;5.80;;;;;;;11.44;75.11;101926.22;5067987;28;20072;-71
2021/12/23 04:36:52;;;;;;;10.38;6.28;;;;;;;11.46;75.04;101921.88;5068293;28;20462;-70
2021/12/23 04:39:20;;;;;;;9.98;6.07;;;;;;;11.47;74.77;101933.34;5058714;28;20131;-70
2021/12/23 04:41:47;;;;;;;10.55;7.00;;;;;;;11.48;74.51;101930.78;5066856;28;20040;-71
2021/12/23 04:44:15;;;;;;;8.45;5.32;;;;;;;11.48;74.02;101925.47;5067112;28;20098;-71
2021/12/23 04:46:43;;;;;;;9.57;5.75;;;;;;;11.53;73.69;101934.44;5066765;28;20125;-71
2021/12/23 04:49:11;;;;;;;8.00;5.88;;;;;;;11.54;73.67;101935.34;5068888;28;20132;-71
2021/12/23 04:51:38;;;;;;;6.35;4.90;;;;;;;11.53;73.63;101938.84;5065951;28;20560;-71
2021/12/23 04:54:08;;;;;;;6.43;4.07;;;;;;;11.55;73.54;101938.00;5083785;28;20106;-71
2021/12/23 04:56:36;;;;;;;6.18;4.60;;;;;;;11.53;73.42;101937.09;5068032;28;20638;-72
2021/12/23 04:59:03;;;;;;;17.88;5.00;;;;;;;11.55;73.23;101948.59;5068658;28;20302;-70
2021/12/23 05:01:32;;;;;;;9.40;4.75;;;;;;;11.57;72.86;101936.31;5067782;28;20094;-71
2021/12/23 05:04:00;;;;;;;9.68;5.70;;;;;;;11.59;72.65;101933.72;5068847;28;20086;-71
2021/12/23 05:06:28;;;;;;;25.40;11.60;;;;;;;11.60;72.35;101927.59;5068578;28;20090;-71
2021/12/23 05:09:17;;;;;;;23.95;9.85;;;;;;;11.61;72.31;101929.38;5067189;28;20045;-69
2021/12/23 05:11:45;;;;;;;54.83;22.33;;;;;;;11.59;72.12;101925.78;5067490;28;20617;-71
2021/12/23 05:14:13;;;;;;;21.40;11.13;;;;;;;11.61;72.29;101932.03;5067680;28;20408;-71
2021/12/23 05:16:40;;;;;;;13.07;7.90;;;;;;;11.57;72.25;101928.38;5068655;28;20496;-71
2021/12/23 05:19:08;;;;;;;9.55;5.03;;;;;;;11.55;72.33;101929.22;5066965;28;20488;-70
2021/12/23 05:21:35;;;;;;;8.52;4.95;;;;;;;11.57;72.26;101938.97;5067159;28;20523;-70
2021/12/23 05:24:04;;;;;;;14.52;7.82;;;;;;;11.57;72.10;101930.13;5071119;28;20043;-71
2021/12/23 05:26:33;;;;;;;11.65;6.13;;;;;;;11.57;72.01;101928.38;5085820;28;20488;-70
2021/12/23 05:29:00;;;;;;;12.88;8.18;;;;;;;11.59;72.04;101939.91;5069942;28;20053;-71
2021/12/23 05:31:28;;;;;;;24.20;12.10;;;;;;;11.60;72.05;101932.88;5072078;28;20435;-70
2021/12/23 05:33:55;;;;;;;115.82;54.13;;;;;;;11.61;72.11;101934.69;5080370;28;20119;-71
2021/12/23 05:36:23;;;;;;;24.25;15.50;;;;;;;11.65;72.09;101933.00;5086976;28;20055;-70
2021/12/23 05:38:50;;;;;;;11.25;7.45;;;;;;;11.66;72.18;101930.41;5076400;28;20445;-70
2021/12/23 05:41:19;;;;;;;9.07;7.43;;;;;;;11.68;72.25;101938.41;5067573;28;20094;-71
2021/12/23 05:43:48;;;;;;;14.50;11.00;;;;;;;11.74;72.49;101934.22;5071032;28;20033;-70
2021/12/23 05:46:16;;;;;;;11.20;7.97;;;;;;;11.76;72.53;101927.22;5098503;28;20063;-70
2021/12/23 05:48:44;;;;;;;17.58;13.98;;;;;;;11.79;72.32;101944.94;5070674;28;22810;-71
2021/12/23 05:51:11;;;;;;;13.27;10.95;;;;;;;11.77;72.20;101943.97;5087141;28;20404;-71
2021/12/23 05:53:39;;;;;;;16.38;13.55;;;;;;;11.78;71.96;101949.31;5092257;28;20492;-70
2021/12/23 05:56:07;;;;;;;15.38;11.50;;;;;;;11.78;71.62;101953.72;5080971;28;20040;-71
2021/12/23 05:58:35;;;;;;;22.08;18.73;;;;;;;11.79;71.57;101950.22;5071114;28;20043;-70
2021/12/23 06:01:04;;;;;;;17.58;15.20;;;;;;;11.82;71.19;101948.56;5070679;28;20049;-70
2021/12/23 06:03:32;;;;;;;15.98;13.45;;;;;;;11.86;71.05;101950.47;5072039;28;20082;-71
2021/12/23 06:06:00;;;;;;;14.00;11.18;;;;;;;11.91;70.84;101953.22;5087154;28;20046;-70
2021/12/23 06:08:27;;;;;;;22.73;18.40;;;;;;;11.92;70.79;101960.31;5090662;28;20052;-71
2021/12/23 06:10:55;;;;;;;12.77;9.95;;;;;;;11.95;70.28;101963.03;5084519;28;20484;-72
2021/12/23 06:13:23;;;;;;;17.85;10.52;;;;;;;12.04;70.41;101965.06;5070760;28;20040;-71
2021/12/23 06:15:50;;;;;;;10.90;6.03;;;;;;;12.08;70.41;101972.25;5071505;28;20093;-70
2021/12/23 06:18:20;;;;;;;12.38;8.32;;;;;;;12.08;70.33;101966.97;5069403;28;20037;-70
2021/12/23 06:20:47;;;;;;;12.60;9.70;;;;;;;12.10;70.19;101960.84;5100458;28;20052;-70
2021/12/23 06:23:15;;;;;;;15.20;12.30;;;;;;;12.14;70.17;101964.50;5070621;28;20040;-70
2021/12/23 06:25:43;;;;;;;10.10;7.63;;;;;;;12.17;70.32;101962.81;5084449;28;20119;-71
2021/12/23 06:28:11;;;;;;;14.40;11.73;;;;;;;12.21;70.34;101971.72;5089569;28;20495;-71
2021/12/23 06:30:38;;;;;;;7.95;6.07;;;;;;;12.21;70.30;101967.31;5076406;28;20044;-70
2021/12/23 06:33:06;;;;;;;7.05;5.93;;;;;;;12.24;69.74;101969.19;5069570;28;20048;-71
2021/12/23 06:35:36;;;;;;;10.02;7.90;;;;;;;12.32;69.78;101980.88;5068874;28;20045;-71
2021/12/23 06:38:07;;;;;;;12.00;7.82;;;;;;;12.34;69.75;101977.41;5072006;28;20087;-70
2021/12/23 06:40:36;;;;;;;9.88;6.55;;;;;;;12.37;69.63;101984.56;5091478;28;20032;-70
2021/12/23 06:43:03;;;;;;;6.75;4.60;;;;;;;12.40;69.29;101983.75;5081510;28;20568;-70
2021/12/23 06:45:31;;;;;;;7.70;3.30;;;;;;;12.40;70.06;101997.91;5070701;28;20041;-70
2021/12/23 06:47:59;;;;;;;7.05;3.47;;;;;;;12.46;70.72;101989.22;5081192;28;20075;-70
2021/12/23 06:50:27;;;;;;;9.05;3.63;;;;;;;12.49;71.24;101992.84;5071030;28;20561;-71
2021/12/23 06:52:58;;;;;;;4.80;3.22;;;;;;;12.51;71.21;101990.22;5071557;28;20040;-70
2021/12/23 06:55:26;;;;;;;8.27;4.60;;;;;;;12.52;70.99;101987.63;5070597;28;20041;-72
2021/12/23 06:57:56;;;;;;;8.05;3.80;;;;;;;12.55;71.09;101990.34;5071668;28;20484;-71
2021/12/23 07:00:26;;;;;;;10.07;3.65;;;;;;;12.58;71.34;101989.56;5069430;28;20041;-71
2021/12/23 07:02:54;;;;;;;8.07;3.63;;;;;;;12.60;71.39;101977.25;5067783;28;20068;-71
2021/12/23 07:05:22;;;;;;;5.63;3.22;;;;;;;12.65;71.17;101981.81;5070098;28;20048;-70
2021/12/23 07:07:56;;;;;;;9.40;3.42;;;;;;;12.70;71.23;101990.78;5068599;28;20062;-70
2021/12/23 07:10:27;;;;;;;10.02;4.32;;;;;;;12.73;70.90;101985.53;5070936;28;20047;-71
2021/12/23 07:12:56;;;;;;;6.28;2.90;;;;;;;12.70;70.75;101996.06;5068962;28;20040;-74
2021/12/23 07:15:25;;;;;;;17.20;13.90;;;;;;;12.71;70.95;101997.88;5069810;28;20036;-71
2021/12/23 07:17:53;;;;;;;9.70;4.68;;;;;;;12.71;70.95;102003.16;5069355;28;20480;-71
2021/12/23 07:20:21;;;;;;;10.32;4.10;;;;;;;12.70;70.95;102003.13;5069584;28;20044;-71
2021/12/23 07:22:49;;;;;;;9.80;6.20;;;;;;;12.70;71.00;102016.38;5084415;28;20044;-71
2021/12/23 07:25:17;;;;;;;8.82;5.53;;;;;;;12.61;71.78;102017.00;5068191;28;20037;-71
2021/12/23 07:27:47;;;;;;;9.80;5.63;;;;;;;12.45;72.85;102016.56;5070373;28;20036;-71
2021/12/23 07:30:18;;;;;;;6.50;3.30;;;;;;;12.34;74.22;102019.78;5067567;28;20052;-70
2021/12/23 07:32:46;;;;;;;5.88;2.85;;;;;;;12.26;74.95;102015.13;5067952;28;20111;-70
2021/12/23 07:35:14;;;;;;;11.23;3.30;;;;;;;12.25;74.99;102019.53;5083108;28;20036;-70
2021/12/23 07:37:43;;;;;;;11.82;6.68;;;;;;;12.33;75.04;102022.41;5050400;28;20037;-71
2021/12/23 07:40:14;;;;;;;8.63;4.00;;;;;;;12.43;74.79;102018.25;5067595;28;20137;-70
2021/12/23 07:42:51;;;;;;;6.00;2.33;;;;;;;12.41;74.54;102036.75;5067299;28;20040;-71
2021/12/23 07:45:21;;;;;;;5.65;3.38;;;;;;;12.42;74.49;102027.94;5053940;28;20090;-70
2021/12/23 07:47:48;;;;;;;5.93;2.50;;;;;;;12.39;73.98;102027.88;5083165;28;20649;-70
2021/12/23 07:50:16;;;;;;;5.60;3.28;;;;;;;12.39;73.68;102035.81;5071431;28;20068;-70
2021/12/23 07:52:44;;;;;;;4.35;2.10;;;;;;;12.35;73.43;102026.88;5067457;28;20033;-70
2021/12/23 07:55:12;;;;;;;4.18;1.92;;;;;;;12.32;73.48;102036.50;5066114;28;20037;-71
2021/12/23 07:57:40;;;;;;;5.75;3.25;;;;;;;12.33;73.61;102043.59;5067590;28;20052;-72
2021/12/23 08:00:09;;;;;;;5.35;3.17;;;;;;;12.36;73.58;102035.72;5068068;28;20054;-72
2021/12/23 08:02:45;;;;;;;7.00;3.00;;;;;;;12.41;73.72;102042.03;5066904;28;20051;-71
2021/12/23 08:05:13;;;;;;;8.50;3.17;;;;;;;12.41;73.38;102044.69;5080980;28;20049;-72
2021/12/23 08:07:40;;;;;;;6.97;3.67;;;;;;;12.49;73.02;102044.91;5066222;28;20074;-72
2021/12/23 08:10:09;;;;;;;9.30;3.85;;;;;;;12.54;72.15;102046.81;5066751;28;20048;-71
2021/12/23 08:12:37;;;;;;;9.52;4.93;;;;;;;12.56;71.56;102041.56;5083933;28;20522;-72
2021/12/23 08:15:06;;;;;;;8.90;4.78;;;;;;;12.61;71.16;102047.91;5064907;28;20170;-71
2021/12/23 08:17:34;;;;;;;6.43;3.05;;;;;;;12.60;71.03;102046.13;5067634;28;20045;-71
2021/12/23 08:20:05;;;;;;;9.38;4.90;;;;;;;12.61;71.24;102042.59;5084364;28;20048;-72
2021/12/23 08:22:34;;;;;;;11.18;3.30;;;;;;;12.63;71.02;102039.16;5067861;28;20127;-71
2021/12/23 08:25:04;;;;;;;10.10;4.28;;;;;;;12.75;70.72;102031.53;5067708;28;20045;-70
2021/12/23 08:27:34;;;;;;;11.90;5.80;;;;;;;12.94;70.19;102035.56;5069304;28;20423;-71
2021/12/23 08:30:02;;;;;;;8.85;4.57;;;;;;;13.11;69.29;102031.63;5069200;28;20118;-71
2021/12/23 08:32:30;;;;;;;7.63;3.90;;;;;;;13.17;68.68;102030.91;5067162;28;20043;-71
2021/12/23 08:34:58;;;;;;;7.50;3.75;;;;;;;13.14;68.37;102026.41;5068974;28;20136;-71
2021/12/23 08:37:28;;;;;;;6.90;2.88;;;;;;;13.07;67.88;102035.03;5069760;28;20046;-70
2021/12/23 08:39:56;;;;;;;5.25;2.53;;;;;;;13.02;67.67;102034.03;5084289;28;20055;-70
2021/12/23 08:42:23;;;;;;;4.53;2.65;;;;;;;13.00;67.48;102032.16;5068578;28;20114;-70
2021/12/23 08:44:51;;;;;;;7.60;2.60;;;;;;;12.98;67.14;102036.56;5069324;28;20052;-71
2021/12/23 08:47:19;;;;;;;2.58;1.48;;;;;;;12.94;66.80;102032.00;5068912;28;20044;-70
2021/12/23 08:49:47;;;;;;;4.65;2.60;;;;;;;12.93;66.50;102032.91;5049342;28;20045;-70
2021/12/23 08:52:15;;;;;;;4.90;2.38;;;;;;;12.92;66.24;102032.00;5064375;28;20139;-71
2021/12/23 08:54:45;;;;;;;6.65;3.35;;;;;;;12.92;66.12;102034.66;5067086;28;20608;-70
2021/12/23 08:57:13;;;;;;;4.30;2.42;;;;;;;12.92;66.19;102033.75;5059775;28;20060;-71
2021/12/23 08:59:41;;;;;;;4.78;2.15;;;;;;;12.91;65.45;102029.31;5072420;28;20040;-71
2021/12/23 09:02:11;;;;;;;3.15;1.83;;;;;;;12.96;65.45;102025.00;5071517;28;20045;-70
2021/12/23 09:04:39;;;;;;;5.28;2.40;;;;;;;12.96;64.62;102019.72;5070982;28;20059;-70
2021/12/23 09:07:08;;;;;;;5.20;2.30;;;;;;;12.94;64.54;102014.34;5079464;28;20564;-71
2021/12/23 09:09:37;;;;;;;10.40;3.38;;;;;;;12.99;64.81;102022.44;5073035;28;20059;-71
2021/12/23 09:12:09;;;;;;;6.03;2.55;;;;;;;12.97;64.23;102021.50;5056774;28;20044;-71
2021/12/23 09:14:37;;;;;;;3.50;2.00;;;;;;;12.96;64.10;102019.72;5078877;28;20040;-70
2021/12/23 09:17:05;;;;;;;3.35;1.92;;;;;;;12.94;64.09;102010.81;5065928;28;20033;-70
2021/12/23 09:19:33;;;;;;;7.72;2.20;;;;;;;12.88;63.95;101997.41;5069386;28;20107;-70
2021/12/23 09:22:01;;;;;;;5.32;2.72;;;;;;;12.90;64.03;102001.91;5066686;28;20041;-71
2021/12/23 09:24:31;;;;;;;4.30;1.42;;;;;;;12.90;63.86;101995.69;5068254;28;20048;-71
2021/12/23 09:27:06;;;;;;;7.85;2.70;;;;;;;12.89;63.68;101993.91;5067990;28;20041;-71
2021/12/23 09:35:07;;;;;;;26.73;12.32;;;;;;;12.92;64.05;101986.94;5081942;28;20079;-70
2021/12/23 09:37:35;;;;;;;195.45;68.28;;;;;;;12.88;63.97;101990.34;5081858;28;20040;-70
2021/12/23 09:40:04;;;;;;;16.98;8.60;;;;;;;12.85;64.30;101987.63;5083568;28;20124;-71
2021/12/23 09:42:34;;;;;;;7.57;3.88;;;;;;;12.86;64.47;101983.25;5080160;28;20033;-71
2021/12/23 09:45:10;;;;;;;8.90;4.55;;;;;;;12.86;64.68;101991.19;5083773;28;20514;-70
2021/12/23 09:47:41;;;;;;;5.65;3.88;;;;;;;12.80;64.63;101994.53;5082519;28;20040;-69
2021/12/23 09:50:13;;;;;;;7.68;3.88;;;;;;;12.79;64.62;101984.81;5079353;28;20127;-70
2021/12/23 09:52:45;;;;;;;6.75;4.63;;;;;;;12.84;64.79;101982.28;5080559;28;20056;-70
2021/12/23 09:55:14;;;;;;;10.27;5.25;;;;;;;12.88;64.68;101978.84;5080615;28;20123;-70
2021/12/23 09:57:43;;;;;;;7.90;3.90;;;;;;;12.90;64.49;101978.03;5075427;28;20039;-70
2021/12/23 10:00:13;;;;;;;9.23;4.82;;;;;;;12.91;64.37;101974.53;5104685;28;20149;-70
2021/12/23 10:02:42;;;;;;;6.05;3.20;;;;;;;12.96;63.79;101975.53;5087283;28;20048;-70
2021/12/23 10:05:13;;;;;;;9.05;3.28;;;;;;;13.07;63.48;101970.50;5071803;28;20401;-70
2021/12/23 10:07:43;;;;;;;7.35;3.03;;;;;;;13.15;63.34;101969.88;5067398;28;20040;-70
2021/12/23 10:10:16;;;;;;;6.68;2.25;;;;;;;13.18;62.93;101977.03;5050706;28;20164;-69
2021/12/23 10:30:18;;;;;;;9.52;3.65;;;;;;;13.01;62.41;101963.28;5028039;28;20068;-69
2021/12/23 10:33:11;;;;;;;7.15;3.35;;;;;;;12.98;62.20;101965.00;5062788;28;21220;-69
2021/12/23 10:38:30;;;;;;;12.98;6.05;;;;;;;13.08;62.12;101959.03;5082865;28;20036;-70
2021/12/23 10:41:01;;;;;;;5.60;3.15;;;;;;;13.04;61.76;101957.19;5086973;28;20044;-70
2021/12/23 10:43:32;;;;;;;10.00;3.25;;;;;;;13.01;61.99;101951.78;5071507;28;20400;-70
2021/12/23 10:46:05;;;;;;;7.85;4.95;;;;;;;12.99;62.05;101950.88;5101092;28;20118;-70
2021/12/23 10:48:44;;;;;;;4.63;3.17;;;;;;;12.97;61.70;101949.94;5071410;28;20049;-70
2021/12/23 10:51:17;;;;;;;7.63;3.55;;;;;;;12.92;61.54;101952.47;5069604;28;20056;-70
2021/12/23 10:59:17;;;;;;;10.88;5.65;;;;;;;12.85;61.49;101960.25;5082055;28;20044;-69
2021/12/23 11:02:08;;;;;;;5.78;3.10;;;;;;;12.84;61.67;101953.13;5082037;28;20064;-69
2021/12/23 11:05:01;;;;;;;8.32;4.82;;;;;;;12.84;61.76;101958.44;5088446;28;20048;-69
2021/12/23 11:07:43;;;;;;;12.02;5.63;;;;;;;12.82;61.33;101952.19;5085539;28;20043;-70
2021/12/23 11:10:20;;;;;;;8.75;5.07;;;;;;;12.78;61.08;101949.47;5088086;28;20087;-70
2021/12/23 11:27:35;;;;;;;11.60;7.28;;;;;;;12.63;60.36;101945.53;5082409;28;20049;-71
2021/12/23 11:38:39;;;;;;;12.25;7.82;;;;;;;12.50;59.91;101932.81;5068769;28;20040;-71
2021/12/23 11:41:19;;;;;;;15.88;7.85;;;;;;;12.53;60.01;101931.16;5069119;28;20052;-70
2021/12/23 11:43:53;;;;;;;8.40;4.10;;;;;;;12.52;59.81;101932.00;5077914;28;20050;-70
2021/12/23 11:46:25;;;;;;;6.13;3.45;;;;;;;12.41;59.58;101937.84;5079268;28;20695;-69
2021/12/23 11:48:55;;;;;;;8.68;3.65;;;;;;;12.37;59.42;101935.13;5068468;28;20044;-69
2021/12/23 11:51:31;;;;;;;7.03;4.35;;;;;;;12.35;59.48;101931.53;5068749;28;20489;-69
2021/12/23 11:54:03;;;;;;;8.55;3.80;;;;;;;12.39;59.35;101937.84;5070197;28;20068;-70
2021/12/23 11:56:33;;;;;;;8.75;4.68;;;;;;;12.41;59.51;101932.56;5063131;28;20098;-70
2021/12/23 11:59:03;;;;;;;11.18;6.40;;;;;;;12.45;59.41;101934.44;5075387;28;20500;-70
2021/12/23 12:01:41;;;;;;;6.85;4.60;;;;;;;12.49;59.34;101937.22;5069501;28;20399;-70
2021/12/23 12:04:12;;;;;;;8.38;3.50;;;;;;;12.50;59.49;101936.38;5063252;28;20706;-70
2021/12/23 12:07:01;;;;;;;6.45;4.18;;;;;;;12.46;59.09;101933.59;5067879;28;20547;-70
2021/12/23 12:09:32;;;;;;;8.40;4.95;;;;;;;12.45;59.28;101929.16;5066726;28;20032;-70
2021/12/23 12:12:15;;;;;;;7.68;3.70;;;;;;;12.37;59.11;101934.25;5081997;28;20044;-69
2021/12/23 12:14:48;;;;;;;6.45;3.05;;;;;;;12.37;59.20;101934.25;5067513;28;20043;-69
2021/12/23 12:17:43;;;;;;;9.45;6.05;;;;;;;12.40;59.04;101937.00;5067084;28;20044;-69
2021/12/23 12:20:35;;;;;;;11.02;7.50;;;;;;;12.43;59.11;101928.22;5068457;28;20040;-70
2021/12/23 12:23:11;;;;;;;12.98;7.50;;;;;;;12.49;59.04;101926.63;5079800;28;20109;-70
2021/12/23 12:26:06;;;;;;;10.45;6.25;;;;;;;12.50;58.69;101930.16;5084942;28;20040;-69
2021/12/23 12:28:37;;;;;;;18.50;12.18;;;;;;;12.49;58.88;101929.28;5073920;28;20127;-70
2021/12/23 12:31:08;;;;;;;10.07;5.50;;;;;;;12.50;58.75;101931.06;5086079;28;20048;-69